Aviation Digital Data Service (ADDS)

Output produced by METARs form (0520 UTC 29 August 2016)
found at http://aviationweather.gov/adds/metars/
 
KYNG 282329Z 2900/2924 VRB04KT P6SM VCTS SCT035CB BKN150 
     FM290100 02004KT P6SM SCT150 BKN200 
     FM290800 01004KT 6SM BR FEW008 SCT150 
     TEMPO 2910/2913 3SM BR SCT008 
     FM291400 01008KT P6SM SCT040